Time;durP1;ratioP1;P1;durP2;ratioP2;P2;SDS_P1;SDS_P2;PMS_P1;PMS_P2;Temp;Humidity;BMP_temperature;BMP_pressure;BME280_temperature;BME280_humidity;BME280_pressure;Samples;Min_cycle;Max_cycle;Signal;HPM_P1;HPM_P2
2021/11/18 00:00:54;;;;;;;;;;;23.00;88.60;;;;;;5095730;28;19909;-44
2021/11/18 00:03:20;;;;;;;;;;;23.00;88.60;;;;;;5095456;28;19927;-43
2021/11/18 00:05:46;;;;;;;;;;;22.90;88.50;;;;;;5095565;28;19915;-43
2021/11/18 00:08:11;;;;;;;;;;;22.90;88.50;;;;;;5095595;28;19953;-44
2021/11/18 00:10:39;;;;;;;;;;;22.90;88.40;;;;;;5095710;28;19908;-48
2021/11/18 00:13:06;;;;;;;;;;;22.90;88.40;;;;;;5076768;28;20356;-44
2021/11/18 00:15:32;;;;;;;;;;;22.90;88.40;;;;;;5095096;28;19994;-43
2021/11/18 00:17:59;;;;;;;;;;;22.90;88.30;;;;;;5095359;28;19915;-44
2021/11/18 00:20:26;;;;;;;;;;;22.90;88.30;;;;;;5095504;28;19961;-44
2021/11/18 00:22:53;;;;;;;;;;;22.90;88.20;;;;;;5095139;28;20273;-44
2021/11/18 00:25:18;;;;;;;;;;;22.80;88.10;;;;;;5095304;28;19912;-49
2021/11/18 00:27:44;;;;;;;;;;;22.80;88.10;;;;;;5094682;28;19999;-43
2021/11/18 00:30:10;;;;;;;;;;;22.80;88.10;;;;;;5095128;28;19908;-45
2021/11/18 00:32:36;;;;;;;;;;;22.80;88.00;;;;;;5095060;28;19915;-44
2021/11/18 00:35:03;;;;;;;;;;;22.80;88.10;;;;;;5094944;28;20384;-48
2021/11/18 00:37:28;;;;;;;;;;;22.80;88.10;;;;;;5094997;28;19951;-44
2021/11/18 00:39:54;;;;;;;;;;;22.80;88.10;;;;;;5094933;28;20261;-47
2021/11/18 00:42:19;;;;;;;;;;;22.80;88.10;;;;;;5093979;28;20015;-44
2021/11/18 00:44:45;;;;;;;;;;;22.70;88.00;;;;;;5094070;28;19952;-45
2021/11/18 00:47:10;;;;;;;;;;;22.70;88.00;;;;;;5094819;28;19908;-46
2021/11/18 00:49:35;;;;;;;;;;;22.70;88.00;;;;;;5094785;28;19908;-47
2021/11/18 00:52:01;;;;;;;;;;;22.70;87.90;;;;;;5094804;28;19908;-44
2021/11/18 00:54:27;;;;;;;;;;;22.70;87.90;;;;;;5094642;28;19915;-45
2021/11/18 00:56:52;;;;;;;;;;;22.70;87.80;;;;;;5094304;28;19912;-42
2021/11/18 00:59:17;;;;;;;;;;;22.70;87.80;;;;;;5094544;28;19912;-43
2021/11/18 01:01:45;;;;;;;;;;;22.70;87.80;;;;;;5094477;28;20007;-45
2021/11/18 01:04:12;;;;;;;;;;;22.70;87.70;;;;;;5094424;28;20014;-45
2021/11/18 01:06:37;;;;;;;;;;;22.70;87.70;;;;;;5094528;28;19908;-46
2021/11/18 01:09:04;;;;;;;;;;;22.60;87.60;;;;;;5094397;28;19990;-43
2021/11/18 01:11:30;;;;;;;;;;;22.60;87.50;;;;;;5093899;28;19930;-43
2021/11/18 01:13:56;;;;;;;;;;;22.60;87.50;;;;;;5094191;28;19908;-44
2021/11/18 01:16:23;;;;;;;;;;;22.70;87.50;;;;;;5094283;28;19908;-43
2021/11/18 01:18:48;;;;;;;;;;;22.60;87.40;;;;;;5094053;28;20291;-43
2021/11/18 01:21:14;;;;;;;;;;;22.60;87.40;;;;;;5094268;28;19992;-44
2021/11/18 01:23:41;;;;;;;;;;;22.60;87.40;;;;;;5093989;28;19916;-43
2021/11/18 01:26:07;;;;;;;;;;;22.60;87.30;;;;;;5093734;28;19908;-43
2021/11/18 01:28:33;;;;;;;;;;;22.60;87.30;;;;;;5093992;28;20459;-43
2021/11/18 01:30:58;;;;;;;;;;;22.50;87.20;;;;;;5094137;28;19939;-44
2021/11/18 01:33:24;;;;;;;;;;;22.50;87.20;;;;;;5075856;28;19915;-43
2021/11/18 01:35:50;;;;;;;;;;;22.50;87.20;;;;;;5094113;28;19908;-44
2021/11/18 01:38:16;;;;;;;;;;;22.50;87.10;;;;;;5094023;28;20360;-44
2021/11/18 01:40:45;;;;;;;;;;;22.50;87.10;;;;;;5093507;28;20348;-45
2021/11/18 01:43:11;;;;;;;;;;;22.50;87.10;;;;;;5093493;28;19920;-45
2021/11/18 01:45:37;;;;;;;;;;;22.50;87.10;;;;;;5093756;28;20050;-43
2021/11/18 01:48:03;;;;;;;;;;;22.50;87.00;;;;;;5093853;28;19933;-44
2021/11/18 01:50:30;;;;;;;;;;;22.50;87.60;;;;;;5093862;28;19995;-43
2021/11/18 01:52:56;;;;;;;;;;;22.40;86.90;;;;;;5075668;28;19908;-44
2021/11/18 01:55:23;;;;;;;;;;;22.40;86.90;;;;;;5092998;28;19953;-43
2021/11/18 01:57:50;;;;;;;;;;;22.40;86.80;;;;;;5093489;28;19908;-43
2021/11/18 02:00:22;;;;;;;;;;;22.40;86.90;;;;;;5093490;28;20336;-46
2021/11/18 02:02:47;;;;;;;;;;;22.40;86.80;;;;;;5093509;28;19970;-45
2021/11/18 02:05:39;;;;;;;;;;;22.40;86.80;;;;;;5093558;28;19912;-44
2021/11/18 02:08:06;;;;;;;;;;;22.40;86.80;;;;;;5090370;28;19987;-44
2021/11/18 02:10:34;;;;;;;;;;;22.40;86.80;;;;;;5093160;28;20027;-43
2021/11/18 02:13:01;;;;;;;;;;;22.40;86.80;;;;;;5093376;28;19951;-45
2021/11/18 02:15:29;;;;;;;;;;;22.40;86.70;;;;;;5093592;28;19911;-43
2021/11/18 02:17:56;;;;;;;;;;;22.30;86.70;;;;;;5093473;28;20378;-43
2021/11/18 02:20:24;;;;;;;;;;;22.30;87.30;;;;;;5093376;28;20410;-44
2021/11/18 02:22:49;;;;;;;;;;;22.30;86.60;;;;;;5093257;28;19916;-43
2021/11/18 02:25:15;;;;;;;;;;;22.30;86.60;;;;;;5092915;28;19908;-45
2021/11/18 02:27:40;;;;;;;;;;;22.30;86.60;;;;;;5093508;28;19950;-45
2021/11/18 02:30:07;;;;;;;;;;;22.30;86.50;;;;;;5093521;28;19912;-43
2021/11/18 02:32:33;;;;;;;;;;;22.30;86.50;;;;;;5093158;28;19919;-43
2021/11/18 02:35:05;;;;;;;;;;;22.30;87.10;;;;;;5093234;28;19909;-43
2021/11/18 02:37:30;;;;;;;;;;;22.30;86.40;;;;;;5093247;28;19912;-44
2021/11/18 02:39:55;;;;;;;;;;;22.30;86.40;;;;;;5092764;28;19915;-43
2021/11/18 02:42:22;;;;;;;;;;;22.30;86.40;;;;;;5093175;28;19920;-43
2021/11/18 02:44:48;;;;;;;;;;;22.30;86.30;;;;;;5093036;28;19952;-43
2021/11/18 02:47:13;;;;;;;;;;;22.20;86.20;;;;;;5093299;28;19909;-44
2021/11/18 02:49:45;;;;;;;;;;;22.20;86.20;;;;;;5093228;28;20352;-43
2021/11/18 02:52:11;;;;;;;;;;;22.20;86.20;;;;;;5093406;28;19915;-46
2021/11/18 02:54:37;;;;;;;;;;;22.20;86.20;;;;;;5092650;28;19969;-43
2021/11/18 02:57:03;;;;;;;;;;;22.20;86.20;;;;;;5074982;28;20325;-45
2021/11/18 02:59:28;;;;;;;;;;;22.20;86.20;;;;;;5093050;28;20003;-43
2021/11/18 03:01:54;;;;;;;;;;;22.20;86.20;;;;;;5093196;28;20418;-43
2021/11/18 03:04:19;;;;;;;;;;;22.20;86.20;;;;;;5092880;28;20280;-44
2021/11/18 03:06:45;;;;;;;;;;;22.20;86.10;;;;;;5094276;28;19944;-44
2021/11/18 03:09:10;;;;;;;;;;;22.20;86.00;;;;;;5095985;28;19909;-44
2021/11/18 03:11:36;;;;;;;;;;;22.10;86.00;;;;;;5096740;28;20023;-43
2021/11/18 03:14:02;;;;;;;;;;;22.10;86.00;;;;;;5096512;28;20368;-45
2021/11/18 03:16:27;;;;;;;;;;;22.10;85.90;;;;;;5078296;28;19931;-44
2021/11/18 03:18:53;;;;;;;;;;;22.10;85.90;;;;;;5096206;28;19908;-46
2021/11/18 03:21:25;;;;;;;;;;;22.10;85.90;;;;;;5096450;28;20272;-44
2021/11/18 03:23:51;;;;;;;;;;;22.10;85.80;;;;;;5096314;28;19916;-45
2021/11/18 03:26:18;;;;;;;;;;;22.10;85.80;;;;;;5096247;28;19930;-45
2021/11/18 03:28:44;;;;;;;;;;;22.10;85.80;;;;;;5096063;28;19908;-43
2021/11/18 03:31:10;;;;;;;;;;;22.10;85.70;;;;;;5096353;28;19915;-46
2021/11/18 03:33:37;;;;;;;;;;;22.00;85.60;;;;;;5096175;28;19947;-43
2021/11/18 03:36:03;;;;;;;;;;;22.00;85.60;;;;;;5095582;28;19919;-44
2021/11/18 03:38:30;;;;;;;;;;;22.00;85.60;;;;;;5096094;28;20273;-46
2021/11/18 03:41:03;;;;;;;;;;;22.00;85.50;;;;;;5096146;28;19912;-44
2021/11/18 03:43:29;;;;;;;;;;;22.00;85.50;;;;;;5096048;28;19980;-45
2021/11/18 03:45:55;;;;;;;;;;;22.00;85.50;;;;;;5095915;28;19908;-44
2021/11/18 03:48:20;;;;;;;;;;;22.00;85.50;;;;;;5095966;28;19915;-44
2021/11/18 03:50:47;;;;;;;;;;;22.00;85.40;;;;;;5095368;28;19908;-45
2021/11/18 03:53:13;;;;;;;;;;;22.00;85.40;;;;;;5095659;28;20003;-43
2021/11/18 03:55:39;;;;;;;;;;;21.90;85.40;;;;;;5095662;28;20332;-44
2021/11/18 03:58:06;;;;;;;;;;;21.90;85.30;;;;;;5095808;28;20441;-47
2021/11/18 04:00:33;;;;;;;;;;;21.90;85.30;;;;;;5095585;28;19934;-43
2021/11/18 04:02:59;;;;;;;;;;;21.90;85.20;;;;;;5095622;28;19916;-43
2021/11/18 04:05:25;;;;;;;;;;;21.90;85.20;;;;;;5095159;28;20379;-43
2021/11/18 04:07:50;;;;;;;;;;;21.90;85.20;;;;;;5095493;28;19934;-45
2021/11/18 04:10:19;;;;;;;;;;;21.90;85.20;;;;;;5095430;28;20335;-44
2021/11/18 04:12:44;;;;;;;;;;;21.90;85.10;;;;;;5095508;28;19909;-44
2021/11/18 04:15:10;;;;;;;;;;;21.90;85.10;;;;;;5095408;28;19909;-44
2021/11/18 04:17:36;;;;;;;;;;;21.90;85.10;;;;;;5095210;28;19908;-44
2021/11/18 04:20:02;;;;;;;;;;;21.80;85.00;;;;;;5094903;28;19915;-43
2021/11/18 04:22:27;;;;;;;;;;;21.90;85.00;;;;;;5095157;28;19954;-46
2021/11/18 04:24:52;;;;;;;;;;;21.80;85.00;;;;;;5095149;28;20376;-45
2021/11/18 04:27:18;;;;;;;;;;;21.80;85.00;;;;;;5095330;28;20356;-44
2021/11/18 04:29:43;;;;;;;;;;;21.80;84.90;;;;;;5095058;28;19915;-47
2021/11/18 04:32:11;;;;;;;;;;;21.80;84.90;;;;;;5095012;28;20342;-46
2021/11/18 04:34:37;;;;;;;;;;;21.80;84.90;;;;;;5094533;28;20383;-43
2021/11/18 04:37:03;;;;;;;;;;;21.80;84.80;;;;;;5095074;28;19912;-44
2021/11/18 04:39:28;;;;;;;;;;;21.80;84.80;;;;;;5094718;28;19908;-44
2021/11/18 04:41:54;;;;;;;;;;;21.80;84.80;;;;;;5094767;28;19961;-44
2021/11/18 04:44:20;;;;;;;;;;;21.80;84.80;;;;;;5094673;28;19916;-44
2021/11/18 04:46:46;;;;;;;;;;;21.80;84.70;;;;;;5094727;28;19912;-44
2021/11/18 04:49:11;;;;;;;;;;;21.80;84.70;;;;;;5094287;28;19914;-45
2021/11/18 04:51:37;;;;;;;;;;;21.70;84.70;;;;;;5094765;28;20265;-45
2021/11/18 04:54:02;;;;;;;;;;;21.70;84.60;;;;;;5094777;28;19965;-43
2021/11/18 04:56:28;;;;;;;;;;;21.70;84.60;;;;;;5094639;28;19909;-43
2021/11/18 04:58:56;;;;;;;;;;;21.70;84.60;;;;;;5094482;28;19915;-43
2021/11/18 05:01:25;;;;;;;;;;;21.70;84.60;;;;;;5094647;28;19916;-47
2021/11/18 05:03:51;;;;;;;;;;;21.70;84.60;;;;;;5094123;28;19916;-47
2021/11/18 05:06:17;;;;;;;;;;;21.70;84.60;;;;;;5094508;28;19908;-43
2021/11/18 05:08:43;;;;;;;;;;;21.70;84.50;;;;;;5094490;28;19912;-46
2021/11/18 05:11:09;;;;;;;;;;;21.70;84.50;;;;;;5076300;28;19915;-44
2021/11/18 05:13:34;;;;;;;;;;;21.70;84.50;;;;;;5094330;28;19909;-45
2021/11/18 05:16:02;;;;;;;;;;;21.70;84.50;;;;;;5094579;28;19961;-44
2021/11/18 05:18:28;;;;;;;;;;;21.70;84.50;;;;;;5093724;28;19908;-43
2021/11/18 05:20:54;;;;;;;;;;;21.70;84.40;;;;;;5094259;28;19931;-43
2021/11/18 05:23:20;;;;;;;;;;;21.70;84.40;;;;;;5094083;28;19916;-46
2021/11/18 05:25:45;;;;;;;;;;;21.60;84.30;;;;;;5094264;28;19908;-45
2021/11/18 05:28:11;;;;;;;;;;;21.60;84.30;;;;;;5094084;28;20011;-45
2021/11/18 05:30:37;;;;;;;;;;;21.60;84.30;;;;;;5093532;28;19995;-44
2021/11/18 05:33:05;;;;;;;;;;;21.60;84.20;;;;;;5093470;28;19912;-43
2021/11/18 05:35:31;;;;;;;;;;;21.60;84.20;;;;;;5094048;28;19991;-43
2021/11/18 05:37:57;;;;;;;;;;;21.60;84.20;;;;;;5094024;28;19917;-43
2021/11/18 05:40:23;;;;;;;;;;;21.60;84.20;;;;;;5093998;28;19981;-44
2021/11/18 05:42:48;;;;;;;;;;;21.60;84.10;;;;;;5093613;28;19926;-44
2021/11/18 05:45:16;;;;;;;;;;;21.60;84.10;;;;;;5094137;28;19912;-43
2021/11/18 05:47:42;;;;;;;;;;;21.60;84.00;;;;;;5093430;28;20021;-43
2021/11/18 05:50:08;;;;;;;;;;;21.60;84.00;;;;;;5093835;28;19940;-43
2021/11/18 05:52:34;;;;;;;;;;;21.60;84.00;;;;;;5093879;28;19930;-45
2021/11/18 05:54:59;;;;;;;;;;;21.60;84.00;;;;;;5093689;28;20403;-45
2021/11/18 05:57:25;;;;;;;;;;;21.60;83.90;;;;;;5093668;28;20272;-49
2021/11/18 05:59:51;;;;;;;;;;;21.60;83.90;;;;;;5093692;28;19908;-48
2021/11/18 06:02:16;;;;;;;;;;;21.60;83.80;;;;;;5093155;28;19909;-44
2021/11/18 06:04:42;;;;;;;;;;;21.60;83.70;;;;;;5093620;28;19916;-44
2021/11/18 06:07:07;;;;;;;;;;;21.60;83.70;;;;;;5093502;28;19916;-43
2021/11/18 06:09:33;;;;;;;;;;;21.60;83.60;;;;;;5093491;28;19912;-43
2021/11/18 06:11:58;;;;;;;;;;;21.60;83.60;;;;;;5093472;28;19908;-43
2021/11/18 06:14:24;;;;;;;;;;;21.60;83.50;;;;;;5093559;28;19908;-45
2021/11/18 06:16:50;;;;;;;;;;;21.70;83.50;;;;;;5093227;28;20413;-43
2021/11/18 06:19:16;;;;;;;;;;;21.60;83.40;;;;;;5093562;28;19936;-45
2021/11/18 06:21:47;;;;;;;;;;;21.70;83.40;;;;;;5093500;28;19931;-43
2021/11/18 06:24:13;;;;;;;;;;;21.70;83.40;;;;;;5093596;28;19916;-44
2021/11/18 06:26:39;;;;;;;;;;;21.60;83.30;;;;;;5075468;28;19922;-44
2021/11/18 06:29:04;;;;;;;;;;;21.70;83.30;;;;;;5093486;28;20066;-45
2021/11/18 06:31:30;;;;;;;;;;;21.70;83.20;;;;;;5093190;28;19908;-41
2021/11/18 06:33:56;;;;;;;;;;;21.70;83.20;;;;;;5093387;28;19931;-44
2021/11/18 06:36:21;;;;;;;;;;;21.70;83.10;;;;;;5093413;28;19909;-43
2021/11/18 06:38:48;;;;;;;;;;;21.70;83.00;;;;;;5093397;28;19946;-44
2021/11/18 06:41:15;;;;;;;;;;;21.70;83.00;;;;;;5093516;28;19950;-46
2021/11/18 06:43:41;;;;;;;;;;;21.70;83.00;;;;;;5097416;28;19916;-44
2021/11/18 06:46:07;;;;;;;;;;;21.70;83.00;;;;;;5096628;28;19912;-47
2021/11/18 06:48:32;;;;;;;;;;;21.70;83.00;;;;;;5078854;28;20104;-45
2021/11/18 06:50:59;;;;;;;;;;;21.70;83.00;;;;;;5097167;28;19908;-46
2021/11/18 06:53:26;;;;;;;;;;;21.70;83.00;;;;;;5097032;28;19908;-45
2021/11/18 06:55:51;;;;;;;;;;;21.80;83.00;;;;;;5096947;28;19909;-44
2021/11/18 06:58:17;;;;;;;;;;;21.80;82.90;;;;;;5096975;28;19969;-44
2021/11/18 07:00:42;;;;;;;;;;;21.80;82.80;;;;;;5096433;28;19919;-49
2021/11/18 07:03:09;;;;;;;;;;;21.90;82.80;;;;;;5096869;28;19916;-45
2021/11/18 07:05:34;;;;;;;;;;;21.90;82.80;;;;;;5096793;28;20280;-45
2021/11/18 07:08:01;;;;;;;;;;;21.90;82.70;;;;;;5096931;28;19908;-45
2021/11/18 07:10:26;;;;;;;;;;;22.00;82.70;;;;;;5096885;28;19961;-45
2021/11/18 07:12:54;;;;;;;;;;;22.00;82.60;;;;;;5096796;28;19908;-45
2021/11/18 07:15:19;;;;;;;;;;;22.10;82.70;;;;;;5096254;28;19908;-44
2021/11/18 07:17:45;;;;;;;;;;;22.10;82.70;;;;;;5096811;28;20352;-46
2021/11/18 07:20:10;;;;;;;;;;;22.10;82.70;;;;;;5096484;28;20053;-45
2021/11/18 07:22:37;;;;;;;;;;;22.10;82.70;;;;;;5096340;28;19962;-45
2021/11/18 07:25:03;;;;;;;;;;;22.10;82.70;;;;;;5096450;28;19912;-46
2021/11/18 07:27:28;;;;;;;;;;;22.10;82.80;;;;;;5096353;28;19914;-45
2021/11/18 07:29:54;;;;;;;;;;;22.10;82.70;;;;;;5095985;28;20002;-50
2021/11/18 07:32:20;;;;;;;;;;;22.10;82.70;;;;;;5096380;28;19908;-47
2021/11/18 07:34:45;;;;;;;;;;;22.10;82.70;;;;;;5096258;28;19978;-48
2021/11/18 07:37:11;;;;;;;;;;;22.20;82.70;;;;;;5096122;28;20003;-46
2021/11/18 07:39:36;;;;;;;;;;;22.20;82.70;;;;;;5096014;28;19915;-46
2021/11/18 07:42:02;;;;;;;;;;;22.20;82.60;;;;;;5096157;28;20007;-47
2021/11/18 07:44:27;;;;;;;;;;;22.20;82.60;;;;;;5095653;28;20356;-46
2021/11/18 07:46:53;;;;;;;;;;;22.30;82.60;;;;;;5096092;28;19927;-45
2021/11/18 07:49:18;;;;;;;;;;;22.30;82.70;;;;;;5095956;28;19991;-46
2021/11/18 07:51:44;;;;;;;;;;;22.20;82.70;;;;;;5095697;28;19908;-46
2021/11/18 07:54:11;;;;;;;;;;;22.20;82.80;;;;;;5095738;28;20002;-49
2021/11/18 07:56:37;;;;;;;;;;;22.10;82.90;;;;;;5095848;28;20042;-44
2021/11/18 07:59:03;;;;;;;;;;;22.10;83.00;;;;;;5095341;28;19973;-44
2021/11/18 08:01:29;;;;;;;;;;;22.10;82.90;;;;;;5095622;28;19908;-49
2021/11/18 08:03:54;;;;;;;;;;;22.20;82.90;;;;;;5091331;28;20276;-49
2021/11/18 08:06:25;;;;;;;;;;;22.20;82.90;;;;;;5091505;28;20361;-49
2021/11/18 08:08:51;;;;;;;;;;;22.20;82.80;;;;;;5094293;28;19961;-46
2021/11/18 08:11:21;;;;;;;;;;;22.20;82.70;;;;;;5095470;28;19908;-44
2021/11/18 08:13:47;;;;;;;;;;;22.20;82.60;;;;;;5095171;28;19908;-50
2021/11/18 08:16:13;;;;;;;;;;;22.20;82.50;;;;;;5089540;28;19934;-49
2021/11/18 08:18:38;;;;;;;;;;;22.30;82.50;;;;;;5094931;28;19960;-45
2021/11/18 08:21:04;;;;;;;;;;;22.30;82.50;;;;;;5095031;28;19908;-45
2021/11/18 08:23:32;;;;;;;;;;;22.30;82.40;;;;;;5095124;28;20032;-48
2021/11/18 08:26:02;;;;;;;;;;;22.30;82.40;;;;;;5094991;28;19930;-47
2021/11/18 08:28:27;;;;;;;;;;;22.30;82.30;;;;;;5095225;28;19908;-46
2021/11/18 08:30:53;;;;;;;;;;;22.30;82.30;;;;;;5095143;28;19908;-48
2021/11/18 08:33:19;;;;;;;;;;;22.30;82.30;;;;;;5094988;28;20280;-50
2021/11/18 08:35:45;;;;;;;;;;;22.30;82.20;;;;;;5095010;28;19908;-45
2021/11/18 08:38:11;;;;;;;;;;;22.30;82.20;;;;;;5095037;28;20384;-50
2021/11/18 08:40:43;;;;;;;;;;;22.40;82.20;;;;;;5094547;28;19908;-44
2021/11/18 08:43:09;;;;;;;;;;;22.30;82.10;;;;;;5094598;28;19920;-45
2021/11/18 08:45:35;;;;;;;;;;;22.40;82.20;;;;;;5094845;28;19960;-46
2021/11/18 08:48:03;;;;;;;;;;;22.40;82.20;;;;;;5094695;28;19959;-46
2021/11/18 08:50:28;;;;;;;;;;;22.40;82.20;;;;;;5094773;28;19908;-43
2021/11/18 08:52:54;;;;;;;;;;;22.40;82.20;;;;;;5094607;28;19908;-44
2021/11/18 08:55:22;;;;;;;;;;;22.40;82.10;;;;;;5094049;28;19999;-43
2021/11/18 08:57:48;;;;;;;;;;;22.40;82.10;;;;;;5094560;28;19908;-43
2021/11/18 09:00:22;;;;;;;;;;;22.40;82.00;;;;;;5094583;28;20015;-45
2021/11/18 09:02:48;;;;;;;;;;;22.40;82.00;;;;;;5094410;28;19912;-44
2021/11/18 09:05:14;;;;;;;;;;;22.40;82.00;;;;;;5093597;28;20203;-46
2021/11/18 09:07:39;;;;;;;;;;;22.40;81.90;;;;;;5094340;28;20360;-45
2021/11/18 09:10:05;;;;;;;;;;;22.40;82.00;;;;;;5093890;28;20364;-47
2021/11/18 09:12:30;;;;;;;;;;;22.40;81.90;;;;;;5094212;28;20391;-47
2021/11/18 09:14:56;;;;;;;;;;;22.40;81.90;;;;;;5094268;28;19909;-46
2021/11/18 09:17:21;;;;;;;;;;;22.40;81.90;;;;;;5093985;28;19951;-45
2021/11/18 09:19:47;;;;;;;;;;;22.40;81.90;;;;;;5094322;28;19908;-44
2021/11/18 09:22:13;;;;;;;;;;;22.40;81.90;;;;;;5094117;28;20012;-44
2021/11/18 09:24:43;;;;;;;;;;;22.40;81.80;;;;;;5111011;28;19916;-48
2021/11/18 09:27:15;;;;;;;;;;;22.50;81.80;;;;;;5114313;28;19907;-49
2021/11/18 09:29:42;;;;;;;;;;;22.40;81.80;;;;;;5114417;28;19915;-50
2021/11/18 09:32:07;;;;;;;;;;;22.50;81.80;;;;;;5114276;28;19912;-50
2021/11/18 09:34:33;;;;;;;;;;;22.50;81.80;;;;;;5096033;28;19938;-46
2021/11/18 09:36:58;;;;;;;;;;;22.40;81.70;;;;;;5114162;28;19913;-50
2021/11/18 09:39:25;;;;;;;;;;;22.50;81.70;;;;;;5113958;28;19978;-48
2021/11/18 09:41:57;;;;;;;;;;;22.50;81.70;;;;;;5114142;28;19945;-46
2021/11/18 09:44:22;;;;;;;;;;;22.50;81.70;;;;;;5114117;28;19938;-45
2021/11/18 09:46:56;;;;;;;;;;;22.50;81.60;;;;;;5114040;28;19946;-43
2021/11/18 09:49:32;;;;;;;;;;;22.50;81.60;;;;;;5114154;28;19908;-47
2021/11/18 09:52:16;;;;;;;;;;;22.50;81.50;;;;;;5114165;28;19915;-43
2021/11/18 09:55:03;;;;;;;;;;;22.50;81.50;;;;;;5113576;28;20320;-43
2021/11/18 09:57:31;;;;;;;;;;;22.50;81.50;;;;;;5113950;28;19925;-44
2021/11/18 10:00:03;;;;;;;;;;;22.50;81.40;;;;;;5113996;28;19915;-45
2021/11/18 10:02:53;;;;;;;;;;;22.50;81.40;;;;;;5114074;28;19908;-45
2021/11/18 10:05:31;;;;;;;;;;;22.50;81.40;;;;;;5113790;28;20299;-45
2021/11/18 10:08:00;;;;;;;;;;;22.50;81.40;;;;;;5113439;28;19965;-45
2021/11/18 10:10:25;;;;;;;;;;;22.50;81.40;;;;;;5113963;28;19908;-43
2021/11/18 10:12:58;;;;;;;;;;;22.50;81.30;;;;;;5113891;28;19953;-44
2021/11/18 10:15:35;;;;;;;;;;;22.60;81.30;;;;;;5114596;28;19914;-44
2021/11/18 10:18:03;;;;;;;;;;;22.60;81.30;;;;;;5118061;28;19908;-45
2021/11/18 10:20:33;;;;;;;;;;;22.60;81.20;;;;;;5117924;28;19914;-43
2021/11/18 10:23:06;;;;;;;;;;;22.60;81.20;;;;;;5117293;28;20395;-47
2021/11/18 10:25:33;;;;;;;;;;;22.60;81.20;;;;;;5117791;28;19938;-47
2021/11/18 10:28:00;;;;;;;;;;;22.60;81.10;;;;;;5117851;28;19908;-46
2021/11/18 10:30:44;;;;;;;;;;;22.60;81.10;;;;;;5117856;28;20002;-47
2021/11/18 10:33:15;;;;;;;;;;;22.60;81.00;;;;;;5117592;28;20318;-47
2021/11/18 10:36:00;;;;;;;;;;;22.60;81.10;;;;;;5117544;28;19907;-43
2021/11/18 10:38:32;;;;;;;;;;;22.60;81.00;;;;;;5116543;28;19908;-44
2021/11/18 10:41:00;;;;;;;;;;;22.60;81.00;;;;;;5117558;28;20299;-45
2021/11/18 10:43:28;;;;;;;;;;;22.60;81.00;;;;;;5117335;28;20414;-48
2021/11/18 10:46:12;;;;;;;;;;;22.60;81.00;;;;;;5117479;28;19912;-43
2021/11/18 10:48:41;;;;;;;;;;;22.60;80.90;;;;;;5117413;28;20304;-42
2021/11/18 10:51:09;;;;;;;;;;;22.60;80.90;;;;;;5116882;28;19908;-44
2021/11/18 10:54:10;;;;;;;;;;;22.60;80.90;;;;;;5117575;28;20287;-42
2021/11/18 10:56:38;;;;;;;;;;;22.60;80.80;;;;;;5014795;28;19909;-43
2021/11/18 10:59:06;;;;;;;;;;;22.60;80.80;;;;;;5014787;28;19922;-42
2021/11/18 11:01:34;;;;;;;;;;;22.60;80.80;;;;;;5014850;28;20012;-45
2021/11/18 11:04:04;;;;;;;;;;;22.60;80.80;;;;;;5014539;28;20067;-42
2021/11/18 11:06:50;;;;;;;;;;;22.60;80.80;;;;;;5014000;28;19909;-45
2021/11/18 11:09:20;;;;;;;;;;;22.70;80.90;;;;;;5014020;28;20306;-47
2021/11/18 11:11:48;;;;;;;;;;;22.70;80.80;;;;;;5014631;28;20314;-44
2021/11/18 11:14:22;;;;;;;;;;;22.70;80.80;;;;;;5014516;28;19932;-46
2021/11/18 11:16:50;;;;;;;;;;;22.70;80.70;;;;;;5014630;28;19909;-47
2021/11/18 11:19:27;;;;;;;;;;;22.70;80.70;;;;;;5014303;28;19914;-42
2021/11/18 11:21:59;;;;;;;;;;;22.70;80.70;;;;;;5014118;28;19913;-43
2021/11/18 11:24:27;;;;;;;;;;;22.70;80.70;;;;;;5014140;28;19921;-45
2021/11/18 11:26:52;;;;;;;;;;;22.70;80.70;;;;;;5013698;28;19910;-45
2021/11/18 11:29:32;;;;;;;;;;;22.70;80.70;;;;;;5013932;28;19924;-43
2021/11/18 11:32:03;;;;;;;;;;;22.70;80.60;;;;;;5116617;28;19911;-47
2021/11/18 11:34:39;;;;;;;;;;;22.70;80.70;;;;;;5116179;28;19942;-43
2021/11/18 11:37:23;;;;;;;;;;;22.60;80.70;;;;;;5116198;28;19908;-44
2021/11/18 11:39:59;;;;;;;;;;;22.70;80.70;;;;;;5116350;28;19946;-41
2021/11/18 11:42:40;;;;;;;;;;;22.70;80.60;;;;;;5116204;28;19927;-49
2021/11/18 11:45:08;;;;;;;;;;;22.70;80.60;;;;;;5116050;28;19916;-45
2021/11/18 11:47:52;;;;;;;;;;;22.70;80.60;;;;;;5116358;28;20363;-44
2021/11/18 11:50:36;;;;;;;;;;;22.70;81.20;;;;;;5115878;28;20037;-43
2021/11/18 11:53:04;;;;;;;;;;;22.70;80.60;;;;;;5116208;28;20368;-44
2021/11/18 11:55:36;;;;;;;;;;;22.70;80.60;;;;;;5116281;28;20457;-44
2021/11/18 11:58:07;;;;;;;;;;;22.80;80.60;;;;;;5116015;28;19953;-46
2021/11/18 12:00:33;;;;;;;;;;;22.80;80.70;;;;;;5116213;28;20003;-46
2021/11/18 12:03:04;;;;;;;;;;;22.80;80.70;;;;;;5115500;28;20038;-45
2021/11/18 12:05:37;;;;;;;;;;;22.80;80.70;;;;;;5114732;28;19908;-42
2021/11/18 12:08:08;;;;;;;;;;;22.90;80.70;;;;;;5115895;28;20383;-43
2021/11/18 12:10:38;;;;;;;;;;;22.90;80.70;;;;;;5115921;28;19908;-46
2021/11/18 12:13:16;;;;;;;;;;;22.90;80.70;;;;;;5115954;28;19912;-42
2021/11/18 12:15:47;;;;;;;;;;;22.90;80.70;;;;;;5115877;28;20318;-42
2021/11/18 12:18:22;;;;;;;;;;;22.90;80.70;;;;;;5115333;28;19955;-45
2021/11/18 12:20:48;;;;;;;;;;;22.90;80.80;;;;;;5115734;28;19908;-43
2021/11/18 12:23:14;;;;;;;;;;;22.90;80.80;;;;;;5115607;28;19916;-44
2021/11/18 12:25:45;;;;;;;;;;;22.90;80.90;;;;;;5115596;28;20396;-43
2021/11/18 12:28:10;;;;;;;;;;;22.90;80.90;;;;;;5115752;28;19937;-42
2021/11/18 12:30:48;;;;;;;;;;;22.90;80.90;;;;;;5115503;28;19912;-42
2021/11/18 12:33:19;;;;;;;;;;;22.90;80.90;;;;;;5114934;28;19919;-44
2021/11/18 12:35:44;;;;;;;;;;;22.90;80.80;;;;;;5115495;28;19961;-47
2021/11/18 12:38:16;;;;;;;;;;;22.90;80.80;;;;;;5115493;28;19908;-42
2021/11/18 12:41:08;;;;;;;;;;;22.90;80.80;;;;;;5115375;28;19915;-42
2021/11/18 12:43:47;;;;;;;;;;;22.80;80.60;;;;;;4996387;28;20364;-44
2021/11/18 12:46:24;;;;;;;;;;;22.80;80.70;;;;;;5012857;28;19913;-43
2021/11/18 12:48:53;;;;;;;;;;;22.70;80.60;;;;;;4993896;28;19957;-42
2021/11/18 12:51:21;;;;;;;;;;;22.70;80.60;;;;;;4992649;28;19914;-42
2021/11/18 12:53:52;;;;;;;;;;;22.80;80.50;;;;;;4992967;28;19910;-44
2021/11/18 12:56:47;;;;;;;;;;;22.70;80.40;;;;;;4993013;28;20166;-43
2021/11/18 12:59:12;;;;;;;;;;;22.80;80.50;;;;;;4992747;28;20297;-43
2021/11/18 13:01:58;;;;;;;;;;;22.80;80.30;;;;;;4992551;28;20268;-42
2021/11/18 13:04:31;;;;;;;;;;;22.80;80.20;;;;;;4992348;28;19921;-45
2021/11/18 13:06:56;;;;;;;;;;;22.80;80.20;;;;;;4992680;28;19933;-46
2021/11/18 13:09:22;;;;;;;;;;;22.80;80.10;;;;;;4992583;28;20414;-44
2021/11/18 13:11:49;;;;;;;;;;;22.80;80.00;;;;;;4976297;28;20327;-43
2021/11/18 13:14:31;;;;;;;;;;;22.80;80.00;;;;;;4992660;28;19910;-44
2021/11/18 13:17:03;;;;;;;;;;;22.80;80.00;;;;;;4992167;28;19909;-44
2021/11/18 13:19:28;;;;;;;;;;;22.80;79.90;;;;;;4995597;28;20017;-42
2021/11/18 13:21:54;;;;;;;;;;;22.80;79.90;;;;;;5104850;28;19912;-44
2021/11/18 13:24:38;;;;;;;;;;;22.80;79.90;;;;;;5094122;28;19916;-43
2021/11/18 13:27:03;;;;;;;;;;;22.80;79.80;;;;;;5094101;28;19940;-45
2021/11/18 13:29:31;;;;;;;;;;;22.90;79.90;;;;;;5089015;28;19947;-45
2021/11/18 13:32:02;;;;;;;;;;;22.90;79.80;;;;;;5093169;28;19962;-42
2021/11/18 13:34:33;;;;;;;;;;;22.90;79.80;;;;;;5093914;28;19947;-47
2021/11/18 13:37:02;;;;;;;;;;;22.90;79.80;;;;;;5093881;28;19912;-43
2021/11/18 13:39:40;;;;;;;;;;;22.90;79.70;;;;;;5093794;28;20268;-42
2021/11/18 13:42:16;;;;;;;;;;;22.90;79.70;;;;;;5093393;28;19924;-44
2021/11/18 13:44:42;;;;;;;;;;;22.90;79.70;;;;;;5093896;28;19916;-44
2021/11/18 13:47:18;;;;;;;;;;;22.90;79.70;;;;;;5093321;28;20007;-45
2021/11/18 13:49:45;;;;;;;;;;;22.90;79.70;;;;;;5088090;28;20043;-42
2021/11/18 13:52:17;;;;;;;;;;;22.90;79.70;;;;;;5088513;28;19950;-45
2021/11/18 13:54:48;;;;;;;;;;;22.90;79.70;;;;;;5093306;28;20353;-43
2021/11/18 13:57:16;;;;;;;;;;;22.90;79.70;;;;;;5093893;28;19934;-43
2021/11/18 13:59:47;;;;;;;;;;;22.90;79.60;;;;;;5087120;28;19974;-43
2021/11/18 14:02:16;;;;;;;;;;;22.90;79.60;;;;;;5093149;28;19909;-43
2021/11/18 14:04:41;;;;;;;;;;;22.90;79.60;;;;;;5093211;28;19916;-43
2021/11/18 14:07:07;;;;;;;;;;;22.90;79.60;;;;;;5093630;28;19937;-42
2021/11/18 14:09:37;;;;;;;;;;;22.90;79.60;;;;;;5093455;28;20253;-43
2021/11/18 14:12:21;;;;;;;;;;;22.90;79.60;;;;;;5093563;28;19908;-42
2021/11/18 14:14:50;;;;;;;;;;;22.90;79.60;;;;;;5093001;28;20276;-42
2021/11/18 14:17:18;;;;;;;;;;;22.90;79.70;;;;;;5093502;28;19912;-43
2021/11/18 14:20:04;;;;;;;;;;;22.90;79.70;;;;;;5074880;28;19912;-46
2021/11/18 14:22:31;;;;;;;;;;;22.90;79.70;;;;;;5070413;28;19912;-43